sensor_id;sensor_type;location;lat;lon;timestamp;temperature;humidity
13310;DHT22;6723;48.256;16.402;2022-12-07T00:01:26;5.70;99.90
13310;DHT22;6723;48.256;16.402;2022-12-07T00:03:54;5.70;99.90
13310;DHT22;6723;48.256;16.402;2022-12-07T00:06:26;5.70;99.90
13310;DHT22;6723;48.256;16.402;2022-12-07T00:08:52;5.70;99.90
13310;DHT22;6723;48.256;16.402;2022-12-07T00:11:20;5.70;99.90
13310;DHT22;6723;48.256;16.402;2022-12-07T00:13:47;5.70;99.90
13310;DHT22;6723;48.256;16.402;2022-12-07T00:16:17;5.70;99.90
13310;DHT22;6723;48.256;16.402;2022-12-07T00:18:44;5.70;99.90
13310;DHT22;6723;48.256;16.402;2022-12-07T00:21:22;5.70;99.90
13310;DHT22;6723;48.256;16.402;2022-12-07T00:23:49;5.80;99.90
13310;DHT22;6723;48.256;16.402;2022-12-07T00:26:37;5.70;99.90
13310;DHT22;6723;48.256;16.402;2022-12-07T00:29:21;5.70;99.90
13310;DHT22;6723;48.256;16.402;2022-12-07T00:31:48;5.70;99.90
13310;DHT22;6723;48.256;16.402;2022-12-07T00:34:19;5.80;99.90
13310;DHT22;6723;48.256;16.402;2022-12-07T00:36:45;5.70;99.90
13310;DHT22;6723;48.256;16.402;2022-12-07T00:39:11;5.80;99.90
13310;DHT22;6723;48.256;16.402;2022-12-07T00:41:37;5.80;99.90
13310;DHT22;6723;48.256;16.402;2022-12-07T00:44:03;5.70;99.90
13310;DHT22;6723;48.256;16.402;2022-12-07T00:46:29;5.70;99.90
13310;DHT22;6723;48.256;16.402;2022-12-07T00:48:55;5.70;99.90
13310;DHT22;6723;48.256;16.402;2022-12-07T00:51:23;5.70;99.90
13310;DHT22;6723;48.256;16.402;2022-12-07T00:53:51;5.70;99.90
13310;DHT22;6723;48.256;16.402;2022-12-07T00:56:18;5.70;99.90
13310;DHT22;6723;48.256;16.402;2022-12-07T00:58:49;5.70;99.90
13310;DHT22;6723;48.256;16.402;2022-12-07T01:01:15;5.70;99.90
13310;DHT22;6723;48.256;16.402;2022-12-07T01:03:40;5.70;99.90
13310;DHT22;6723;48.256;16.402;2022-12-07T01:06:06;5.70;99.90
13310;DHT22;6723;48.256;16.402;2022-12-07T01:08:32;5.70;99.90
13310;DHT22;6723;48.256;16.402;2022-12-07T01:11:04;5.70;99.90
13310;DHT22;6723;48.256;16.402;2022-12-07T01:13:30;5.70;99.90
13310;DHT22;6723;48.256;16.402;2022-12-07T01:15:58;5.70;99.90
13310;DHT22;6723;48.256;16.402;2022-12-07T01:18:27;5.70;99.90
13310;DHT22;6723;48.256;16.402;2022-12-07T01:21:00;5.70;99.90
13310;DHT22;6723;48.256;16.402;2022-12-07T01:23:26;5.70;99.90
13310;DHT22;6723;48.256;16.402;2022-12-07T01:26:00;5.70;99.90
13310;DHT22;6723;48.256;16.402;2022-12-07T01:28:27;5.70;99.90
13310;DHT22;6723;48.256;16.402;2022-12-07T01:31:07;5.60;99.90
13310;DHT22;6723;48.256;16.402;2022-12-07T01:33:36;5.60;99.90
13310;DHT22;6723;48.256;16.402;2022-12-07T01:36:33;5.60;99.90
13310;DHT22;6723;48.256;16.402;2022-12-07T01:39:02;5.60;99.90
13310;DHT22;6723;48.256;16.402;2022-12-07T01:41:31;5.60;99.90
13310;DHT22;6723;48.256;16.402;2022-12-07T01:44:28;5.60;99.90
13310;DHT22;6723;48.256;16.402;2022-12-07T01:46:58;5.60;99.90
13310;DHT22;6723;48.256;16.402;2022-12-07T01:49:44;5.60;99.90
13310;DHT22;6723;48.256;16.402;2022-12-07T01:52:25;5.60;99.90
13310;DHT22;6723;48.256;16.402;2022-12-07T01:54:55;5.60;99.90
13310;DHT22;6723;48.256;16.402;2022-12-07T01:57:22;5.60;99.90
13310;DHT22;6723;48.256;16.402;2022-12-07T01:59:50;5.50;99.90
13310;DHT22;6723;48.256;16.402;2022-12-07T02:02:25;5.60;99.90
13310;DHT22;6723;48.256;16.402;2022-12-07T02:04:53;5.60;99.90
13310;DHT22;6723;48.256;16.402;2022-12-07T02:07:20;5.60;99.90
13310;DHT22;6723;48.256;16.402;2022-12-07T02:09:47;5.60;99.90
13310;DHT22;6723;48.256;16.402;2022-12-07T02:12:31;5.60;99.90
13310;DHT22;6723;48.256;16.402;2022-12-07T02:14:57;5.50;99.90
13310;DHT22;6723;48.256;16.402;2022-12-07T02:20:22;5.50;99.90
13310;DHT22;6723;48.256;16.402;2022-12-07T02:23:32;5.50;99.90
13310;DHT22;6723;48.256;16.402;2022-12-07T02:35:51;5.50;99.90
13310;DHT22;6723;48.256;16.402;2022-12-07T02:40:50;5.50;99.90
13310;DHT22;6723;48.256;16.402;2022-12-07T02:43:27;5.50;99.90
13310;DHT22;6723;48.256;16.402;2022-12-07T02:45:56;5.50;99.90
13310;DHT22;6723;48.256;16.402;2022-12-07T02:48:25;5.50;99.90
13310;DHT22;6723;48.256;16.402;2022-12-07T02:50:53;5.50;99.90
13310;DHT22;6723;48.256;16.402;2022-12-07T03:15:16;5.50;99.90
13310;DHT22;6723;48.256;16.402;2022-12-07T03:17:46;5.50;99.90
13310;DHT22;6723;48.256;16.402;2022-12-07T03:20:17;5.50;99.90
13310;DHT22;6723;48.256;16.402;2022-12-07T03:22:45;5.50;99.90
13310;DHT22;6723;48.256;16.402;2022-12-07T03:25:15;5.50;99.90
13310;DHT22;6723;48.256;16.402;2022-12-07T03:30:20;5.50;99.90
13310;DHT22;6723;48.256;16.402;2022-12-07T03:32:53;5.50;99.90
13310;DHT22;6723;48.256;16.402;2022-12-07T03:35:31;5.50;99.90
13310;DHT22;6723;48.256;16.402;2022-12-07T03:41:00;5.50;99.90
13310;DHT22;6723;48.256;16.402;2022-12-07T03:43:29;5.50;99.90
13310;DHT22;6723;48.256;16.402;2022-12-07T03:46:18;5.40;99.90
13310;DHT22;6723;48.256;16.402;2022-12-07T03:48:49;5.40;99.90
13310;DHT22;6723;48.256;16.402;2022-12-07T03:51:24;5.40;99.90
13310;DHT22;6723;48.256;16.402;2022-12-07T03:53:57;5.40;99.90
13310;DHT22;6723;48.256;16.402;2022-12-07T03:56:25;5.50;99.90
13310;DHT22;6723;48.256;16.402;2022-12-07T03:58:52;5.50;99.90
13310;DHT22;6723;48.256;16.402;2022-12-07T04:01:19;5.50;99.90
13310;DHT22;6723;48.256;16.402;2022-12-07T04:03:45;5.50;99.90
13310;DHT22;6723;48.256;16.402;2022-12-07T04:06:11;5.50;99.90
13310;DHT22;6723;48.256;16.402;2022-12-07T04:08:37;5.50;99.90
13310;DHT22;6723;48.256;16.402;2022-12-07T04:11:03;5.50;99.90
13310;DHT22;6723;48.256;16.402;2022-12-07T04:13:28;5.50;99.90
13310;DHT22;6723;48.256;16.402;2022-12-07T04:15:54;5.40;99.90
13310;DHT22;6723;48.256;16.402;2022-12-07T04:18:20;5.50;99.90
13310;DHT22;6723;48.256;16.402;2022-12-07T04:20:46;5.50;99.90
13310;DHT22;6723;48.256;16.402;2022-12-07T04:23:12;5.40;99.90
13310;DHT22;6723;48.256;16.402;2022-12-07T04:25:37;5.50;99.90
13310;DHT22;6723;48.256;16.402;2022-12-07T04:28:03;5.40;99.90
13310;DHT22;6723;48.256;16.402;2022-12-07T04:30:29;5.40;99.90
13310;DHT22;6723;48.256;16.402;2022-12-07T04:32:55;5.40;99.90
13310;DHT22;6723;48.256;16.402;2022-12-07T04:35:20;5.40;99.90
13310;DHT22;6723;48.256;16.402;2022-12-07T04:37:46;5.40;99.90
13310;DHT22;6723;48.256;16.402;2022-12-07T04:40:12;5.40;99.90
13310;DHT22;6723;48.256;16.402;2022-12-07T04:42:39;5.40;99.90
13310;DHT22;6723;48.256;16.402;2022-12-07T04:45:06;5.40;99.90
13310;DHT22;6723;48.256;16.402;2022-12-07T04:47:32;5.40;99.90
13310;DHT22;6723;48.256;16.402;2022-12-07T04:49:58;5.40;99.90
13310;DHT22;6723;48.256;16.402;2022-12-07T04:52:23;5.30;99.90
13310;DHT22;6723;48.256;16.402;2022-12-07T04:54:49;5.40;99.90
13310;DHT22;6723;48.256;16.402;2022-12-07T04:57:15;5.30;99.90
13310;DHT22;6723;48.256;16.402;2022-12-07T04:59:40;5.30;99.90
13310;DHT22;6723;48.256;16.402;2022-12-07T05:02:06;5.30;99.90
13310;DHT22;6723;48.256;16.402;2022-12-07T05:04:32;5.30;99.90
13310;DHT22;6723;48.256;16.402;2022-12-07T05:06:57;5.30;99.90
13310;DHT22;6723;48.256;16.402;2022-12-07T05:09:23;5.30;99.90
13310;DHT22;6723;48.256;16.402;2022-12-07T05:11:49;5.30;99.90
13310;DHT22;6723;48.256;16.402;2022-12-07T05:14:18;5.30;99.90
13310;DHT22;6723;48.256;16.402;2022-12-07T05:16:46;5.30;99.90
13310;DHT22;6723;48.256;16.402;2022-12-07T05:19:12;5.30;99.90
13310;DHT22;6723;48.256;16.402;2022-12-07T05:21:39;5.30;99.90
13310;DHT22;6723;48.256;16.402;2022-12-07T05:24:07;5.30;99.90
13310;DHT22;6723;48.256;16.402;2022-12-07T05:26:33;5.30;99.90
13310;DHT22;6723;48.256;16.402;2022-12-07T05:28:58;5.30;99.90
13310;DHT22;6723;48.256;16.402;2022-12-07T05:31:25;5.20;99.90
13310;DHT22;6723;48.256;16.402;2022-12-07T05:33:52;5.30;99.90
13310;DHT22;6723;48.256;16.402;2022-12-07T05:36:18;5.30;99.90
13310;DHT22;6723;48.256;16.402;2022-12-07T05:38:44;5.30;99.90
13310;DHT22;6723;48.256;16.402;2022-12-07T05:41:14;5.30;99.90
13310;DHT22;6723;48.256;16.402;2022-12-07T05:43:59;5.20;99.90
13310;DHT22;6723;48.256;16.402;2022-12-07T05:46:26;5.30;99.90
13310;DHT22;6723;48.256;16.402;2022-12-07T05:48:52;5.30;99.90
13310;DHT22;6723;48.256;16.402;2022-12-07T05:51:18;5.30;99.90
13310;DHT22;6723;48.256;16.402;2022-12-07T05:53:44;5.30;99.90
13310;DHT22;6723;48.256;16.402;2022-12-07T05:56:10;5.30;99.90
13310;DHT22;6723;48.256;16.402;2022-12-07T05:58:36;5.30;99.90
13310;DHT22;6723;48.256;16.402;2022-12-07T06:01:20;5.30;99.90
13310;DHT22;6723;48.256;16.402;2022-12-07T06:03:46;5.20;99.90
13310;DHT22;6723;48.256;16.402;2022-12-07T06:06:11;5.30;99.90
13310;DHT22;6723;48.256;16.402;2022-12-07T06:08:37;5.30;99.90
13310;DHT22;6723;48.256;16.402;2022-12-07T06:11:03;5.30;99.90
13310;DHT22;6723;48.256;16.402;2022-12-07T06:13:47;5.30;99.90
13310;DHT22;6723;48.256;16.402;2022-12-07T06:16:13;5.30;99.90
13310;DHT22;6723;48.256;16.402;2022-12-07T06:18:38;5.30;99.90
13310;DHT22;6723;48.256;16.402;2022-12-07T06:21:04;5.30;99.90
13310;DHT22;6723;48.256;16.402;2022-12-07T06:23:30;5.30;99.90
13310;DHT22;6723;48.256;16.402;2022-12-07T06:25:56;5.30;99.90
13310;DHT22;6723;48.256;16.402;2022-12-07T06:28:21;5.30;99.90
13310;DHT22;6723;48.256;16.402;2022-12-07T06:30:47;5.30;99.90
13310;DHT22;6723;48.256;16.402;2022-12-07T06:33:13;5.30;99.90
13310;DHT22;6723;48.256;16.402;2022-12-07T06:35:38;5.30;99.90
13310;DHT22;6723;48.256;16.402;2022-12-07T06:38:04;5.30;99.90
13310;DHT22;6723;48.256;16.402;2022-12-07T06:40:30;5.30;99.90
13310;DHT22;6723;48.256;16.402;2022-12-07T06:42:56;5.40;99.90
13310;DHT22;6723;48.256;16.402;2022-12-07T06:45:21;5.40;99.90
13310;DHT22;6723;48.256;16.402;2022-12-07T06:47:47;5.40;99.90
13310;DHT22;6723;48.256;16.402;2022-12-07T06:50:13;5.40;99.90
13310;DHT22;6723;48.256;16.402;2022-12-07T06:52:38;5.30;99.90
13310;DHT22;6723;48.256;16.402;2022-12-07T06:55:04;5.30;99.90
13310;DHT22;6723;48.256;16.402;2022-12-07T06:57:30;5.30;99.90
13310;DHT22;6723;48.256;16.402;2022-12-07T06:59:56;5.40;99.90
13310;DHT22;6723;48.256;16.402;2022-12-07T07:02:22;5.40;99.90
13310;DHT22;6723;48.256;16.402;2022-12-07T07:04:47;5.40;99.90
13310;DHT22;6723;48.256;16.402;2022-12-07T07:07:13;5.40;99.90
13310;DHT22;6723;48.256;16.402;2022-12-07T07:09:39;5.50;99.90
13310;DHT22;6723;48.256;16.402;2022-12-07T07:12:04;5.60;99.90
13310;DHT22;6723;48.256;16.402;2022-12-07T07:14:30;5.80;99.90
13310;DHT22;6723;48.256;16.402;2022-12-07T07:16:56;5.70;99.90
13310;DHT22;6723;48.256;16.402;2022-12-07T07:19:22;5.60;99.90
13310;DHT22;6723;48.256;16.402;2022-12-07T07:21:47;5.60;99.90
13310;DHT22;6723;48.256;16.402;2022-12-07T07:24:13;5.60;99.90
13310;DHT22;6723;48.256;16.402;2022-12-07T07:26:39;5.60;99.90
13310;DHT22;6723;48.256;16.402;2022-12-07T07:29:04;5.50;99.90
13310;DHT22;6723;48.256;16.402;2022-12-07T07:31:30;5.50;99.90
13310;DHT22;6723;48.256;16.402;2022-12-07T07:33:56;5.50;99.90
13310;DHT22;6723;48.256;16.402;2022-12-07T07:36:21;5.50;99.90
13310;DHT22;6723;48.256;16.402;2022-12-07T07:38:47;5.60;99.90
13310;DHT22;6723;48.256;16.402;2022-12-07T07:41:13;5.60;99.90
13310;DHT22;6723;48.256;16.402;2022-12-07T07:43:39;5.50;99.90
13310;DHT22;6723;48.256;16.402;2022-12-07T07:46:04;5.60;99.90
13310;DHT22;6723;48.256;16.402;2022-12-07T07:48:30;5.60;99.90
13310;DHT22;6723;48.256;16.402;2022-12-07T07:51:07;5.60;99.90
13310;DHT22;6723;48.256;16.402;2022-12-07T07:53:33;5.60;99.90
13310;DHT22;6723;48.256;16.402;2022-12-07T07:56:00;5.70;99.90
13310;DHT22;6723;48.256;16.402;2022-12-07T07:58:25;5.70;99.90
13310;DHT22;6723;48.256;16.402;2022-12-07T08:00:51;5.70;99.90
13310;DHT22;6723;48.256;16.402;2022-12-07T08:03:17;5.70;99.90
13310;DHT22;6723;48.256;16.402;2022-12-07T08:05:43;5.70;99.90
13310;DHT22;6723;48.256;16.402;2022-12-07T08:08:09;5.80;99.90
13310;DHT22;6723;48.256;16.402;2022-12-07T08:10:34;5.80;99.90
13310;DHT22;6723;48.256;16.402;2022-12-07T08:13:01;5.80;99.90
13310;DHT22;6723;48.256;16.402;2022-12-07T08:15:45;5.80;99.90
13310;DHT22;6723;48.256;16.402;2022-12-07T08:18:26;5.90;99.90
13310;DHT22;6723;48.256;16.402;2022-12-07T08:20:59;5.90;99.90
13310;DHT22;6723;48.256;16.402;2022-12-07T08:23:27;5.90;99.90
13310;DHT22;6723;48.256;16.402;2022-12-07T08:25:52;5.80;99.90
13310;DHT22;6723;48.256;16.402;2022-12-07T08:28:18;5.90;99.90
13310;DHT22;6723;48.256;16.402;2022-12-07T08:30:44;5.90;99.90
13310;DHT22;6723;48.256;16.402;2022-12-07T08:33:10;5.90;99.90
13310;DHT22;6723;48.256;16.402;2022-12-07T08:35:36;6.00;99.90
13310;DHT22;6723;48.256;16.402;2022-12-07T08:38:03;6.10;99.90
13310;DHT22;6723;48.256;16.402;2022-12-07T08:40:29;6.10;99.90
13310;DHT22;6723;48.256;16.402;2022-12-07T08:42:55;6.10;99.90
13310;DHT22;6723;48.256;16.402;2022-12-07T08:45:21;6.00;99.90
13310;DHT22;6723;48.256;16.402;2022-12-07T08:48:11;6.00;99.90
13310;DHT22;6723;48.256;16.402;2022-12-07T08:50:39;6.00;99.90
13310;DHT22;6723;48.256;16.402;2022-12-07T08:53:06;6.00;99.90
13310;DHT22;6723;48.256;16.402;2022-12-07T08:55:33;6.10;99.90
13310;DHT22;6723;48.256;16.402;2022-12-07T08:58:00;6.10;99.90
13310;DHT22;6723;48.256;16.402;2022-12-07T09:00:35;6.20;99.90
13310;DHT22;6723;48.256;16.402;2022-12-07T09:03:01;6.20;99.90
13310;DHT22;6723;48.256;16.402;2022-12-07T09:05:27;6.30;99.90
13310;DHT22;6723;48.256;16.402;2022-12-07T09:07:56;6.20;99.90
13310;DHT22;6723;48.256;16.402;2022-12-07T09:10:32;6.20;99.90
13310;DHT22;6723;48.256;16.402;2022-12-07T09:12:58;6.30;99.90
13310;DHT22;6723;48.256;16.402;2022-12-07T09:15:28;6.50;99.90
13310;DHT22;6723;48.256;16.402;2022-12-07T09:17:54;6.70;99.90
13310;DHT22;6723;48.256;16.402;2022-12-07T09:20:20;6.70;99.90
13310;DHT22;6723;48.256;16.402;2022-12-07T09:22:45;8.50;99.90
13310;DHT22;6723;48.256;16.402;2022-12-07T09:25:11;9.30;99.90
13310;DHT22;6723;48.256;16.402;2022-12-07T09:27:37;10.30;99.10
13310;DHT22;6723;48.256;16.402;2022-12-07T09:30:04;10.90;95.30
13310;DHT22;6723;48.256;16.402;2022-12-07T09:32:30;12.40;95.50
13310;DHT22;6723;48.256;16.402;2022-12-07T09:34:58;13.90;93.50
13310;DHT22;6723;48.256;16.402;2022-12-07T09:37:24;13.90;90.20
13310;DHT22;6723;48.256;16.402;2022-12-07T09:39:49;13.80;88.90
13310;DHT22;6723;48.256;16.402;2022-12-07T09:45:34;13.40;83.90
13310;DHT22;6723;48.256;16.402;2022-12-07T09:48:03;12.20;87.30
13310;DHT22;6723;48.256;16.402;2022-12-07T09:50:29;11.50;87.90
13310;DHT22;6723;48.256;16.402;2022-12-07T09:53:08;10.50;90.20
13310;DHT22;6723;48.256;16.402;2022-12-07T09:55:38;9.90;91.70
13310;DHT22;6723;48.256;16.402;2022-12-07T09:58:08;9.60;92.30
13310;DHT22;6723;48.256;16.402;2022-12-07T10:00:36;10.00;91.70
13310;DHT22;6723;48.256;16.402;2022-12-07T10:03:02;9.50;92.10
13310;DHT22;6723;48.256;16.402;2022-12-07T10:05:42;9.30;93.30
13310;DHT22;6723;48.256;16.402;2022-12-07T10:08:19;9.40;93.40
13310;DHT22;6723;48.256;16.402;2022-12-07T10:10:46;9.50;93.40
13310;DHT22;6723;48.256;16.402;2022-12-07T10:13:40;9.70;93.30
13310;DHT22;6723;48.256;16.402;2022-12-07T10:16:32;10.20;92.00
13310;DHT22;6723;48.256;16.402;2022-12-07T10:22:15;13.30;87.10
13310;DHT22;6723;48.256;16.402;2022-12-07T10:24:43;14.70;86.30
13310;DHT22;6723;48.256;16.402;2022-12-07T10:27:21;14.50;82.80
13310;DHT22;6723;48.256;16.402;2022-12-07T10:29:52;13.60;83.10
13310;DHT22;6723;48.256;16.402;2022-12-07T10:34:44;12.90;79.70
13310;DHT22;6723;48.256;16.402;2022-12-07T10:39:49;12.20;81.30
13310;DHT22;6723;48.256;16.402;2022-12-07T10:42:21;11.50;82.00
13310;DHT22;6723;48.256;16.402;2022-12-07T11:01:32;12.50;82.90
13310;DHT22;6723;48.256;16.402;2022-12-07T11:04:29;11.50;83.20
13310;DHT22;6723;48.256;16.402;2022-12-07T11:15:34;10.90;83.20
13310;DHT22;6723;48.256;16.402;2022-12-07T11:18:16;10.60;83.90
13310;DHT22;6723;48.256;16.402;2022-12-07T11:20:58;10.90;84.00
13310;DHT22;6723;48.256;16.402;2022-12-07T11:26:18;10.60;82.70
13310;DHT22;6723;48.256;16.402;2022-12-07T11:29:29;10.40;82.50
13310;DHT22;6723;48.256;16.402;2022-12-07T11:35:17;10.20;82.70
13310;DHT22;6723;48.256;16.402;2022-12-07T11:37:44;9.60;85.50
13310;DHT22;6723;48.256;16.402;2022-12-07T11:40:35;9.40;87.30
13310;DHT22;6723;48.256;16.402;2022-12-07T11:45:41;9.00;89.30
13310;DHT22;6723;48.256;16.402;2022-12-07T11:51:11;9.10;90.00
13310;DHT22;6723;48.256;16.402;2022-12-07T11:56:12;9.70;88.60
13310;DHT22;6723;48.256;16.402;2022-12-07T12:04:02;10.50;84.20
13310;DHT22;6723;48.256;16.402;2022-12-07T12:06:31;11.20;83.60
13310;DHT22;6723;48.256;16.402;2022-12-07T12:09:09;11.40;82.80
13310;DHT22;6723;48.256;16.402;2022-12-07T12:20:47;12.80;79.80
13310;DHT22;6723;48.256;16.402;2022-12-07T12:22:55;13.10;78.30
13310;DHT22;6723;48.256;16.402;2022-12-07T12:25:31;14.00;75.70
13310;DHT22;6723;48.256;16.402;2022-12-07T12:28:00;12.90;75.60
13310;DHT22;6723;48.256;16.402;2022-12-07T12:30:30;12.80;76.60
13310;DHT22;6723;48.256;16.402;2022-12-07T12:33:21;12.80;77.00
13310;DHT22;6723;48.256;16.402;2022-12-07T12:46:53;12.20;78.80
13310;DHT22;6723;48.256;16.402;2022-12-07T12:51:54;12.60;77.00
13310;DHT22;6723;48.256;16.402;2022-12-07T12:54:28;12.50;76.30
13310;DHT22;6723;48.256;16.402;2022-12-07T12:57:25;11.90;76.70
13310;DHT22;6723;48.256;16.402;2022-12-07T13:02:33;10.30;80.00
13310;DHT22;6723;48.256;16.402;2022-12-07T13:15:51;9.60;85.50
13310;DHT22;6723;48.256;16.402;2022-12-07T13:23:58;9.10;87.00
13310;DHT22;6723;48.256;16.402;2022-12-07T13:31:46;9.00;87.60
13310;DHT22;6723;48.256;16.402;2022-12-07T13:34:35;9.10;88.00
13310;DHT22;6723;48.256;16.402;2022-12-07T13:37:14;8.70;88.20
13310;DHT22;6723;48.256;16.402;2022-12-07T13:39:50;8.50;89.40
13310;DHT22;6723;48.256;16.402;2022-12-07T13:42:31;8.50;89.50
13310;DHT22;6723;48.256;16.402;2022-12-07T13:45:00;8.40;90.00
13310;DHT22;6723;48.256;16.402;2022-12-07T13:47:43;8.30;90.20
13310;DHT22;6723;48.256;16.402;2022-12-07T13:50:29;8.20;90.70
13310;DHT22;6723;48.256;16.402;2022-12-07T13:52:59;8.20;90.90
13310;DHT22;6723;48.256;16.402;2022-12-07T13:55:27;8.10;92.00
13310;DHT22;6723;48.256;16.402;2022-12-07T13:57:54;7.90;92.00
13310;DHT22;6723;48.256;16.402;2022-12-07T14:00:28;7.80;92.20
13310;DHT22;6723;48.256;16.402;2022-12-07T14:03:02;7.60;92.60
13310;DHT22;6723;48.256;16.402;2022-12-07T14:05:33;7.50;92.40
13310;DHT22;6723;48.256;16.402;2022-12-07T14:10:35;7.20;92.50
13310;DHT22;6723;48.256;16.402;2022-12-07T14:13:17;7.10;92.60
13310;DHT22;6723;48.256;16.402;2022-12-07T14:15:50;7.20;92.70
13310;DHT22;6723;48.256;16.402;2022-12-07T14:18:39;7.20;92.90
13310;DHT22;6723;48.256;16.402;2022-12-07T14:21:18;7.00;92.30
13310;DHT22;6723;48.256;16.402;2022-12-07T14:23:45;7.00;92.50
13310;DHT22;6723;48.256;16.402;2022-12-07T14:26:14;6.90;92.60
13310;DHT22;6723;48.256;16.402;2022-12-07T14:28:42;6.70;92.70
13310;DHT22;6723;48.256;16.402;2022-12-07T14:31:14;6.70;93.00
13310;DHT22;6723;48.256;16.402;2022-12-07T14:33:40;6.70;93.30
13310;DHT22;6723;48.256;16.402;2022-12-07T14:36:13;6.70;93.70
13310;DHT22;6723;48.256;16.402;2022-12-07T14:38:41;6.60;94.10
13310;DHT22;6723;48.256;16.402;2022-12-07T14:41:14;6.50;94.30
13310;DHT22;6723;48.256;16.402;2022-12-07T14:44:00;6.50;94.60
13310;DHT22;6723;48.256;16.402;2022-12-07T14:46:26;6.40;94.80
13310;DHT22;6723;48.256;16.402;2022-12-07T14:48:52;6.40;95.10
13310;DHT22;6723;48.256;16.402;2022-12-07T14:51:17;6.30;95.80
13310;DHT22;6723;48.256;16.402;2022-12-07T14:53:48;6.20;96.00
13310;DHT22;6723;48.256;16.402;2022-12-07T14:56:14;6.10;96.20
13310;DHT22;6723;48.256;16.402;2022-12-07T14:58:40;6.10;96.40
13310;DHT22;6723;48.256;16.402;2022-12-07T15:01:06;6.00;96.80
13310;DHT22;6723;48.256;16.402;2022-12-07T15:03:32;6.10;96.70
13310;DHT22;6723;48.256;16.402;2022-12-07T15:06:00;6.10;97.00
13310;DHT22;6723;48.256;16.402;2022-12-07T15:08:26;6.10;96.80
13310;DHT22;6723;48.256;16.402;2022-12-07T15:10:52;6.00;96.60
13310;DHT22;6723;48.256;16.402;2022-12-07T15:13:18;6.10;96.80
13310;DHT22;6723;48.256;16.402;2022-12-07T15:16:02;6.10;96.60
13310;DHT22;6723;48.256;16.402;2022-12-07T15:18:28;6.10;97.10
13310;DHT22;6723;48.256;16.402;2022-12-07T15:20:54;6.10;97.30
13310;DHT22;6723;48.256;16.402;2022-12-07T15:23:20;6.10;97.20
13310;DHT22;6723;48.256;16.402;2022-12-07T15:25:48;6.10;97.40
13310;DHT22;6723;48.256;16.402;2022-12-07T15:28:14;6.10;97.60
13310;DHT22;6723;48.256;16.402;2022-12-07T15:30:41;6.10;97.80
13310;DHT22;6723;48.256;16.402;2022-12-07T15:33:09;6.10;98.20
13310;DHT22;6723;48.256;16.402;2022-12-07T15:35:43;6.10;98.50
13310;DHT22;6723;48.256;16.402;2022-12-07T15:38:10;6.10;99.00
13310;DHT22;6723;48.256;16.402;2022-12-07T15:40:36;6.10;99.40
13310;DHT22;6723;48.256;16.402;2022-12-07T15:43:02;6.10;99.40
13310;DHT22;6723;48.256;16.402;2022-12-07T15:45:29;6.10;99.60
13310;DHT22;6723;48.256;16.402;2022-12-07T15:47:54;6.10;99.80
13310;DHT22;6723;48.256;16.402;2022-12-07T15:50:21;6.10;99.80
13310;DHT22;6723;48.256;16.402;2022-12-07T15:52:48;6.10;99.80
13310;DHT22;6723;48.256;16.402;2022-12-07T15:55:14;6.10;99.90
13310;DHT22;6723;48.256;16.402;2022-12-07T15:57:39;6.00;99.90
13310;DHT22;6723;48.256;16.402;2022-12-07T16:00:07;6.00;99.90
13310;DHT22;6723;48.256;16.402;2022-12-07T16:02:35;6.00;99.90
13310;DHT22;6723;48.256;16.402;2022-12-07T16:05:01;6.00;99.90
13310;DHT22;6723;48.256;16.402;2022-12-07T16:07:27;6.00;99.90
13310;DHT22;6723;48.256;16.402;2022-12-07T16:09:53;5.90;99.90
13310;DHT22;6723;48.256;16.402;2022-12-07T16:12:18;6.00;99.90
13310;DHT22;6723;48.256;16.402;2022-12-07T16:14:44;5.90;99.90
13310;DHT22;6723;48.256;16.402;2022-12-07T16:17:10;5.90;99.90
13310;DHT22;6723;48.256;16.402;2022-12-07T16:19:37;5.90;99.90
13310;DHT22;6723;48.256;16.402;2022-12-07T16:22:04;5.80;99.90
13310;DHT22;6723;48.256;16.402;2022-12-07T16:24:54;5.80;99.90
13310;DHT22;6723;48.256;16.402;2022-12-07T16:27:20;5.80;99.90
13310;DHT22;6723;48.256;16.402;2022-12-07T16:29:45;5.70;99.90
13310;DHT22;6723;48.256;16.402;2022-12-07T16:32:11;5.70;99.90
13310;DHT22;6723;48.256;16.402;2022-12-07T16:34:37;5.60;99.90
13310;DHT22;6723;48.256;16.402;2022-12-07T16:37:02;5.60;99.90
13310;DHT22;6723;48.256;16.402;2022-12-07T16:39:28;5.50;99.90
13310;DHT22;6723;48.256;16.402;2022-12-07T16:41:54;5.60;99.90
13310;DHT22;6723;48.256;16.402;2022-12-07T16:44:20;5.60;99.90
13310;DHT22;6723;48.256;16.402;2022-12-07T16:46:46;5.50;99.90
13310;DHT22;6723;48.256;16.402;2022-12-07T16:49:13;5.40;99.90
13310;DHT22;6723;48.256;16.402;2022-12-07T16:51:39;5.40;99.90
13310;DHT22;6723;48.256;16.402;2022-12-07T16:54:06;5.40;99.90
13310;DHT22;6723;48.256;16.402;2022-12-07T16:56:44;5.30;99.90
13310;DHT22;6723;48.256;16.402;2022-12-07T16:59:10;5.30;99.90
13310;DHT22;6723;48.256;16.402;2022-12-07T17:01:35;5.30;99.90
13310;DHT22;6723;48.256;16.402;2022-12-07T17:04:01;5.30;99.90
13310;DHT22;6723;48.256;16.402;2022-12-07T17:06:28;5.20;99.90
13310;DHT22;6723;48.256;16.402;2022-12-07T17:08:56;5.20;99.90
13310;DHT22;6723;48.256;16.402;2022-12-07T17:11:28;5.20;99.90
13310;DHT22;6723;48.256;16.402;2022-12-07T17:13:54;5.10;99.90
13310;DHT22;6723;48.256;16.402;2022-12-07T17:16:39;5.20;99.90
13310;DHT22;6723;48.256;16.402;2022-12-07T17:19:05;5.20;99.90
13310;DHT22;6723;48.256;16.402;2022-12-07T17:21:32;5.10;99.90
13310;DHT22;6723;48.256;16.402;2022-12-07T17:24:02;5.10;99.90
13310;DHT22;6723;48.256;16.402;2022-12-07T17:26:28;5.10;99.90
13310;DHT22;6723;48.256;16.402;2022-12-07T17:29:00;5.10;99.90
13310;DHT22;6723;48.256;16.402;2022-12-07T17:31:26;5.10;99.90
13310;DHT22;6723;48.256;16.402;2022-12-07T17:33:52;5.10;99.90
13310;DHT22;6723;48.256;16.402;2022-12-07T17:36:28;5.10;99.90
13310;DHT22;6723;48.256;16.402;2022-12-07T17:38:56;5.10;99.90
13310;DHT22;6723;48.256;16.402;2022-12-07T17:41:24;5.10;99.90
13310;DHT22;6723;48.256;16.402;2022-12-07T17:44:15;5.10;99.90
13310;DHT22;6723;48.256;16.402;2022-12-07T17:46:41;5.00;99.90
13310;DHT22;6723;48.256;16.402;2022-12-07T17:49:07;5.10;99.90
13310;DHT22;6723;48.256;16.402;2022-12-07T17:51:33;5.00;99.90
13310;DHT22;6723;48.256;16.402;2022-12-07T17:54:17;5.10;99.90
13310;DHT22;6723;48.256;16.402;2022-12-07T17:56:44;5.00;99.90
13310;DHT22;6723;48.256;16.402;2022-12-07T17:59:10;5.00;99.90
13310;DHT22;6723;48.256;16.402;2022-12-07T18:01:37;5.00;99.90
13310;DHT22;6723;48.256;16.402;2022-12-07T18:04:03;5.10;99.90
13310;DHT22;6723;48.256;16.402;2022-12-07T18:06:29;5.10;99.90
13310;DHT22;6723;48.256;16.402;2022-12-07T18:08:55;5.10;99.90
13310;DHT22;6723;48.256;16.402;2022-12-07T18:11:21;5.00;99.90
13310;DHT22;6723;48.256;16.402;2022-12-07T18:13:48;5.10;99.90
13310;DHT22;6723;48.256;16.402;2022-12-07T18:16:16;5.10;99.90
13310;DHT22;6723;48.256;16.402;2022-12-07T18:18:43;5.10;99.90
13310;DHT22;6723;48.256;16.402;2022-12-07T18:21:13;5.20;99.90
13310;DHT22;6723;48.256;16.402;2022-12-07T18:23:46;5.20;99.90
13310;DHT22;6723;48.256;16.402;2022-12-07T18:26:13;5.10;99.90
13310;DHT22;6723;48.256;16.402;2022-12-07T18:28:49;5.10;99.90